sensor_id;sensor_type;location;lat;lon;timestamp;temperature;humidity
45044;DHT22;30784;48.490;9.688;2022-11-04T00:00:19;12.60;62.80
45044;DHT22;30784;48.490;9.688;2022-11-04T00:02:45;12.60;62.90
45044;DHT22;30784;48.490;9.688;2022-11-04T00:05:10;12.60;62.90
45044;DHT22;30784;48.490;9.688;2022-11-04T00:07:36;12.60;63.00
45044;DHT22;30784;48.490;9.688;2022-11-04T00:10:20;12.60;63.10
45044;DHT22;30784;48.490;9.688;2022-11-04T00:13:05;12.60;63.10
45044;DHT22;30784;48.490;9.688;2022-11-04T00:15:35;12.60;63.20
45044;DHT22;30784;48.490;9.688;2022-11-04T00:18:20;12.50;63.00
45044;DHT22;30784;48.490;9.688;2022-11-04T00:20:45;12.60;63.20
45044;DHT22;30784;48.490;9.688;2022-11-04T00:23:29;12.50;63.20
45044;DHT22;30784;48.490;9.688;2022-11-04T00:26:13;12.50;63.40
45044;DHT22;30784;48.490;9.688;2022-11-04T00:28:57;12.50;63.20
45044;DHT22;30784;48.490;9.688;2022-11-04T00:31:22;12.50;63.40
45044;DHT22;30784;48.490;9.688;2022-11-04T00:34:06;12.50;63.30
45044;DHT22;30784;48.490;9.688;2022-11-04T00:36:33;12.50;63.40
45044;DHT22;30784;48.490;9.688;2022-11-04T00:39:01;12.50;63.30
45044;DHT22;30784;48.490;9.688;2022-11-04T00:41:26;12.50;63.30
45044;DHT22;30784;48.490;9.688;2022-11-04T00:43:54;12.50;63.30
45044;DHT22;30784;48.490;9.688;2022-11-04T00:46:20;12.50;63.30
45044;DHT22;30784;48.490;9.688;2022-11-04T00:48:46;12.60;63.30
45044;DHT22;30784;48.490;9.688;2022-11-04T00:51:12;12.50;63.20
45044;DHT22;30784;48.490;9.688;2022-11-04T00:53:38;12.60;63.30
45044;DHT22;30784;48.490;9.688;2022-11-04T00:56:06;12.60;63.30
45044;DHT22;30784;48.490;9.688;2022-11-04T00:58:32;12.60;63.30
45044;DHT22;30784;48.490;9.688;2022-11-04T01:00:57;12.50;63.10
45044;DHT22;30784;48.490;9.688;2022-11-04T01:03:25;12.60;63.20
45044;DHT22;30784;48.490;9.688;2022-11-04T01:05:51;12.60;63.30
45044;DHT22;30784;48.490;9.688;2022-11-04T01:08:16;12.50;63.20
45044;DHT22;30784;48.490;9.688;2022-11-04T01:10:42;12.50;63.20
45044;DHT22;30784;48.490;9.688;2022-11-04T01:13:13;12.60;63.30
45044;DHT22;30784;48.490;9.688;2022-11-04T01:15:39;12.50;63.20
45044;DHT22;30784;48.490;9.688;2022-11-04T01:18:08;12.50;63.20
45044;DHT22;30784;48.490;9.688;2022-11-04T01:20:35;12.50;63.10
45044;DHT22;30784;48.490;9.688;2022-11-04T01:23:01;12.50;63.20
45044;DHT22;30784;48.490;9.688;2022-11-04T01:25:26;12.50;63.20
45044;DHT22;30784;48.490;9.688;2022-11-04T01:27:52;12.60;63.20
45044;DHT22;30784;48.490;9.688;2022-11-04T01:30:20;12.60;63.20
45044;DHT22;30784;48.490;9.688;2022-11-04T01:32:46;12.50;63.10
45044;DHT22;30784;48.490;9.688;2022-11-04T01:35:11;12.50;63.10
45044;DHT22;30784;48.490;9.688;2022-11-04T01:37:37;12.50;63.10
45044;DHT22;30784;48.490;9.688;2022-11-04T01:40:05;12.60;63.10
45044;DHT22;30784;48.490;9.688;2022-11-04T01:42:31;12.60;63.20
45044;DHT22;30784;48.490;9.688;2022-11-04T01:45:01;12.60;63.10
45044;DHT22;30784;48.490;9.688;2022-11-04T01:47:34;12.60;63.10
45044;DHT22;30784;48.490;9.688;2022-11-04T01:50:10;12.50;63.00
45044;DHT22;30784;48.490;9.688;2022-11-04T01:52:54;12.50;62.90
45044;DHT22;30784;48.490;9.688;2022-11-04T01:55:23;12.50;62.90
45044;DHT22;30784;48.490;9.688;2022-11-04T01:57:53;12.60;63.00
45044;DHT22;30784;48.490;9.688;2022-11-04T02:00:20;12.50;63.00
45044;DHT22;30784;48.490;9.688;2022-11-04T02:03:14;12.50;63.00
45044;DHT22;30784;48.490;9.688;2022-11-04T02:05:41;12.50;63.00
45044;DHT22;30784;48.490;9.688;2022-11-04T02:08:08;12.50;62.90
45044;DHT22;30784;48.490;9.688;2022-11-04T02:10:34;12.50;62.90
45044;DHT22;30784;48.490;9.688;2022-11-04T02:13:02;12.50;62.90
45044;DHT22;30784;48.490;9.688;2022-11-04T02:15:54;12.40;62.90
45044;DHT22;30784;48.490;9.688;2022-11-04T02:18:33;12.40;63.00
45044;DHT22;30784;48.490;9.688;2022-11-04T02:26:50;12.30;63.10
45044;DHT22;30784;48.490;9.688;2022-11-04T02:29:43;12.30;63.10
45044;DHT22;30784;48.490;9.688;2022-11-04T02:37:50;12.30;63.40
45044;DHT22;30784;48.490;9.688;2022-11-04T02:43:15;12.40;63.50
45044;DHT22;30784;48.490;9.688;2022-11-04T02:45:50;12.40;63.30
45044;DHT22;30784;48.490;9.688;2022-11-04T02:51:16;12.40;62.70
45044;DHT22;30784;48.490;9.688;2022-11-04T02:54:13;12.30;62.60
45044;DHT22;30784;48.490;9.688;2022-11-04T02:56:45;12.30;62.80
45044;DHT22;30784;48.490;9.688;2022-11-04T02:59:23;12.20;62.90
45044;DHT22;30784;48.490;9.688;2022-11-04T03:01:52;12.20;62.80
45044;DHT22;30784;48.490;9.688;2022-11-04T03:04:26;12.20;62.90
45044;DHT22;30784;48.490;9.688;2022-11-04T03:06:56;12.20;62.90
45044;DHT22;30784;48.490;9.688;2022-11-04T03:09:26;12.10;62.50
45044;DHT22;30784;48.490;9.688;2022-11-04T03:11:59;12.10;62.60
45044;DHT22;30784;48.490;9.688;2022-11-04T03:14:36;12.00;62.30
45044;DHT22;30784;48.490;9.688;2022-11-04T03:17:06;12.00;62.50
45044;DHT22;30784;48.490;9.688;2022-11-04T03:19:59;11.90;62.50
45044;DHT22;30784;48.490;9.688;2022-11-04T03:22:32;11.90;62.30
45044;DHT22;30784;48.490;9.688;2022-11-04T03:24:59;11.90;62.00
45044;DHT22;30784;48.490;9.688;2022-11-04T03:30:12;11.80;61.50
45044;DHT22;30784;48.490;9.688;2022-11-04T03:32:49;11.80;61.90
45044;DHT22;30784;48.490;9.688;2022-11-04T03:35:18;11.80;61.70
45044;DHT22;30784;48.490;9.688;2022-11-04T03:37:44;11.70;61.70
45044;DHT22;30784;48.490;9.688;2022-11-04T03:40:12;11.80;61.80
45044;DHT22;30784;48.490;9.688;2022-11-04T03:42:52;11.70;61.80
45044;DHT22;30784;48.490;9.688;2022-11-04T03:45:22;11.70;62.00
45044;DHT22;30784;48.490;9.688;2022-11-04T03:47:48;11.70;61.80
45044;DHT22;30784;48.490;9.688;2022-11-04T03:50:25;11.60;61.80
45044;DHT22;30784;48.490;9.688;2022-11-04T03:52:51;11.60;61.90
45044;DHT22;30784;48.490;9.688;2022-11-04T03:55:17;11.60;62.00
45044;DHT22;30784;48.490;9.688;2022-11-04T04:00:15;11.60;61.80
45044;DHT22;30784;48.490;9.688;2022-11-04T04:03:05;11.50;61.70
45044;DHT22;30784;48.490;9.688;2022-11-04T04:05:43;11.60;61.60
45044;DHT22;30784;48.490;9.688;2022-11-04T04:16:28;11.50;61.60
45044;DHT22;30784;48.490;9.688;2022-11-04T04:18:58;11.50;61.60
45044;DHT22;30784;48.490;9.688;2022-11-04T04:21:29;11.50;61.60
45044;DHT22;30784;48.490;9.688;2022-11-04T04:23:57;11.40;61.50
45044;DHT22;30784;48.490;9.688;2022-11-04T04:26:47;11.40;61.40
45044;DHT22;30784;48.490;9.688;2022-11-04T04:29:33;11.40;61.40
45044;DHT22;30784;48.490;9.688;2022-11-04T04:32:01;11.40;61.50
45044;DHT22;30784;48.490;9.688;2022-11-04T04:34:29;11.40;61.60
45044;DHT22;30784;48.490;9.688;2022-11-04T04:37:08;11.30;61.40
45044;DHT22;30784;48.490;9.688;2022-11-04T04:39:37;11.30;61.30
45044;DHT22;30784;48.490;9.688;2022-11-04T04:42:35;11.30;61.60
45044;DHT22;30784;48.490;9.688;2022-11-04T04:45:34;11.30;61.20
45044;DHT22;30784;48.490;9.688;2022-11-04T04:48:01;11.30;61.20
45044;DHT22;30784;48.490;9.688;2022-11-04T04:50:31;11.30;61.20
45044;DHT22;30784;48.490;9.688;2022-11-04T04:52:58;11.20;61.20
45044;DHT22;30784;48.490;9.688;2022-11-04T04:55:24;11.20;61.20
45044;DHT22;30784;48.490;9.688;2022-11-04T04:57:50;11.10;61.30
45044;DHT22;30784;48.490;9.688;2022-11-04T05:00:18;11.10;61.40
45044;DHT22;30784;48.490;9.688;2022-11-04T05:02:47;11.10;61.40
45044;DHT22;30784;48.490;9.688;2022-11-04T05:05:15;11.10;61.40
45044;DHT22;30784;48.490;9.688;2022-11-04T05:07:42;11.10;61.50
45044;DHT22;30784;48.490;9.688;2022-11-04T05:10:10;11.10;61.50
45044;DHT22;30784;48.490;9.688;2022-11-04T05:12:37;11.10;61.50
45044;DHT22;30784;48.490;9.688;2022-11-04T05:15:25;11.10;61.60
45044;DHT22;30784;48.490;9.688;2022-11-04T05:17:56;11.10;62.00
45044;DHT22;30784;48.490;9.688;2022-11-04T05:20:22;11.20;61.50
45044;DHT22;30784;48.490;9.688;2022-11-04T05:22:47;11.20;61.50
45044;DHT22;30784;48.490;9.688;2022-11-04T05:25:13;11.20;61.40
45044;DHT22;30784;48.490;9.688;2022-11-04T05:27:39;11.20;61.50
45044;DHT22;30784;48.490;9.688;2022-11-04T05:30:05;11.20;61.50
45044;DHT22;30784;48.490;9.688;2022-11-04T05:32:33;11.20;61.50
45044;DHT22;30784;48.490;9.688;2022-11-04T05:34:58;11.20;61.50
45044;DHT22;30784;48.490;9.688;2022-11-04T05:37:24;11.20;61.60
45044;DHT22;30784;48.490;9.688;2022-11-04T05:39:50;11.20;61.50
45044;DHT22;30784;48.490;9.688;2022-11-04T05:42:15;11.10;61.50
45044;DHT22;30784;48.490;9.688;2022-11-04T05:44:41;11.20;61.60
45044;DHT22;30784;48.490;9.688;2022-11-04T05:47:09;11.20;61.60
45044;DHT22;30784;48.490;9.688;2022-11-04T05:49:35;11.10;61.60
45044;DHT22;30784;48.490;9.688;2022-11-04T05:52:00;11.10;61.60
45044;DHT22;30784;48.490;9.688;2022-11-04T05:54:29;11.10;61.70
45044;DHT22;30784;48.490;9.688;2022-11-04T05:56:54;11.10;61.70
45044;DHT22;30784;48.490;9.688;2022-11-04T05:59:20;11.10;61.80
45044;DHT22;30784;48.490;9.688;2022-11-04T06:01:45;11.10;61.80
45044;DHT22;30784;48.490;9.688;2022-11-04T06:04:17;11.10;61.90
45044;DHT22;30784;48.490;9.688;2022-11-04T06:06:43;11.10;61.80
45044;DHT22;30784;48.490;9.688;2022-11-04T06:09:09;11.10;61.80
45044;DHT22;30784;48.490;9.688;2022-11-04T06:11:35;11.10;61.70
45044;DHT22;30784;48.490;9.688;2022-11-04T06:14:03;11.10;61.70
45044;DHT22;30784;48.490;9.688;2022-11-04T06:16:32;11.00;61.60
45044;DHT22;30784;48.490;9.688;2022-11-04T06:19:01;11.10;61.70
45044;DHT22;30784;48.490;9.688;2022-11-04T06:21:30;11.00;61.70
45044;DHT22;30784;48.490;9.688;2022-11-04T06:23:57;11.00;61.60
45044;DHT22;30784;48.490;9.688;2022-11-04T06:26:27;11.00;61.70
45044;DHT22;30784;48.490;9.688;2022-11-04T06:28:56;11.00;61.70
45044;DHT22;30784;48.490;9.688;2022-11-04T06:31:21;11.00;61.70
45044;DHT22;30784;48.490;9.688;2022-11-04T06:33:47;11.00;61.70
45044;DHT22;30784;48.490;9.688;2022-11-04T06:36:14;11.00;61.80
45044;DHT22;30784;48.490;9.688;2022-11-04T06:38:40;11.00;61.80
45044;DHT22;30784;48.490;9.688;2022-11-04T06:41:10;10.90;61.80
45044;DHT22;30784;48.490;9.688;2022-11-04T06:43:36;11.00;61.80
45044;DHT22;30784;48.490;9.688;2022-11-04T06:46:02;10.90;62.30
45044;DHT22;30784;48.490;9.688;2022-11-04T06:48:28;10.90;61.80
45044;DHT22;30784;48.490;9.688;2022-11-04T06:50:58;10.90;61.80
45044;DHT22;30784;48.490;9.688;2022-11-04T06:53:27;10.90;61.80
45044;DHT22;30784;48.490;9.688;2022-11-04T06:55:53;11.00;61.80
45044;DHT22;30784;48.490;9.688;2022-11-04T06:58:25;10.90;61.80
45044;DHT22;30784;48.490;9.688;2022-11-04T07:00:51;10.90;61.80
45044;DHT22;30784;48.490;9.688;2022-11-04T07:03:17;10.90;61.80
45044;DHT22;30784;48.490;9.688;2022-11-04T07:05:43;10.90;61.90
45044;DHT22;30784;48.490;9.688;2022-11-04T07:08:11;10.90;61.90
45044;DHT22;30784;48.490;9.688;2022-11-04T07:10:37;10.80;61.90
45044;DHT22;30784;48.490;9.688;2022-11-04T07:13:02;10.80;61.90
45044;DHT22;30784;48.490;9.688;2022-11-04T07:15:28;10.80;62.00
45044;DHT22;30784;48.490;9.688;2022-11-04T07:17:53;10.80;62.00
45044;DHT22;30784;48.490;9.688;2022-11-04T07:20:19;10.80;62.10
45044;DHT22;30784;48.490;9.688;2022-11-04T07:22:44;10.70;62.10
45044;DHT22;30784;48.490;9.688;2022-11-04T07:25:10;10.70;62.20
45044;DHT22;30784;48.490;9.688;2022-11-04T07:27:36;10.70;62.30
45044;DHT22;30784;48.490;9.688;2022-11-04T07:30:01;10.70;62.30
45044;DHT22;30784;48.490;9.688;2022-11-04T07:32:30;10.70;62.40
45044;DHT22;30784;48.490;9.688;2022-11-04T07:34:58;10.70;62.40
45044;DHT22;30784;48.490;9.688;2022-11-04T07:37:24;10.70;62.40
45044;DHT22;30784;48.490;9.688;2022-11-04T07:39:49;10.80;62.70
45044;DHT22;30784;48.490;9.688;2022-11-04T07:42:15;10.70;62.60
45044;DHT22;30784;48.490;9.688;2022-11-04T07:44:40;10.70;62.60
45044;DHT22;30784;48.490;9.688;2022-11-04T07:47:06;10.70;62.80
45044;DHT22;30784;48.490;9.688;2022-11-04T07:49:34;10.70;62.80
45044;DHT22;30784;48.490;9.688;2022-11-04T07:51:59;10.80;62.90
45044;DHT22;30784;48.490;9.688;2022-11-04T07:54:25;10.70;63.00
45044;DHT22;30784;48.490;9.688;2022-11-04T07:56:50;10.70;63.00
45044;DHT22;30784;48.490;9.688;2022-11-04T07:59:16;10.80;63.10
45044;DHT22;30784;48.490;9.688;2022-11-04T08:01:44;10.80;63.20
45044;DHT22;30784;48.490;9.688;2022-11-04T08:04:09;10.80;63.20
45044;DHT22;30784;48.490;9.688;2022-11-04T08:06:35;10.80;63.40
45044;DHT22;30784;48.490;9.688;2022-11-04T08:09:03;10.80;63.50
45044;DHT22;30784;48.490;9.688;2022-11-04T08:11:29;10.80;63.40
45044;DHT22;30784;48.490;9.688;2022-11-04T08:13:55;10.80;63.50
45044;DHT22;30784;48.490;9.688;2022-11-04T08:16:22;10.80;63.50
45044;DHT22;30784;48.490;9.688;2022-11-04T08:18:49;10.70;63.50
45044;DHT22;30784;48.490;9.688;2022-11-04T08:21:17;10.80;63.50
45044;DHT22;30784;48.490;9.688;2022-11-04T08:23:43;10.80;63.40
45044;DHT22;30784;48.490;9.688;2022-11-04T08:26:12;10.80;63.50
45044;DHT22;30784;48.490;9.688;2022-11-04T08:28:39;10.80;63.60
45044;DHT22;30784;48.490;9.688;2022-11-04T08:31:10;10.80;63.60
45044;DHT22;30784;48.490;9.688;2022-11-04T08:33:38;10.80;63.60
45044;DHT22;30784;48.490;9.688;2022-11-04T08:36:08;10.80;63.60
45044;DHT22;30784;48.490;9.688;2022-11-04T08:38:34;10.80;63.60
45044;DHT22;30784;48.490;9.688;2022-11-04T08:41:03;10.80;63.60
45044;DHT22;30784;48.490;9.688;2022-11-04T08:43:29;10.80;63.80
45044;DHT22;30784;48.490;9.688;2022-11-04T08:45:55;10.80;63.70
45044;DHT22;30784;48.490;9.688;2022-11-04T08:48:20;10.90;63.70
45044;DHT22;30784;48.490;9.688;2022-11-04T08:50:52;10.90;63.60
45044;DHT22;30784;48.490;9.688;2022-11-04T08:53:18;10.90;63.60
45044;DHT22;30784;48.490;9.688;2022-11-04T08:55:44;10.90;63.60
45044;DHT22;30784;48.490;9.688;2022-11-04T08:58:09;10.90;63.60
45044;DHT22;30784;48.490;9.688;2022-11-04T09:00:35;11.00;64.00
45044;DHT22;30784;48.490;9.688;2022-11-04T09:03:01;11.00;63.50
45044;DHT22;30784;48.490;9.688;2022-11-04T09:05:27;11.00;63.40
45044;DHT22;30784;48.490;9.688;2022-11-04T09:07:53;11.00;63.40
45044;DHT22;30784;48.490;9.688;2022-11-04T09:10:19;11.10;63.40
45044;DHT22;30784;48.490;9.688;2022-11-04T09:12:45;11.10;63.50
45044;DHT22;30784;48.490;9.688;2022-11-04T09:15:11;11.10;63.40
45044;DHT22;30784;48.490;9.688;2022-11-04T09:17:36;11.20;63.40
45044;DHT22;30784;48.490;9.688;2022-11-04T09:20:03;11.20;63.30
45044;DHT22;30784;48.490;9.688;2022-11-04T09:22:29;11.20;63.30
45044;DHT22;30784;48.490;9.688;2022-11-04T09:24:55;11.30;63.10
45044;DHT22;30784;48.490;9.688;2022-11-04T09:27:21;11.30;63.00
45044;DHT22;30784;48.490;9.688;2022-11-04T09:29:47;11.30;63.00
45044;DHT22;30784;48.490;9.688;2022-11-04T09:32:13;11.30;63.30
45044;DHT22;30784;48.490;9.688;2022-11-04T09:34:39;11.40;63.30
45044;DHT22;30784;48.490;9.688;2022-11-04T09:37:04;11.40;63.30
45044;DHT22;30784;48.490;9.688;2022-11-04T09:39:30;11.40;63.00
45044;DHT22;30784;48.490;9.688;2022-11-04T09:42:12;11.40;62.90
45044;DHT22;30784;48.490;9.688;2022-11-04T09:45:10;11.40;63.00
45044;DHT22;30784;48.490;9.688;2022-11-04T09:47:38;11.50;63.00
45044;DHT22;30784;48.490;9.688;2022-11-04T09:50:08;11.50;62.80
45044;DHT22;30784;48.490;9.688;2022-11-04T09:52:41;11.50;62.80
45044;DHT22;30784;48.490;9.688;2022-11-04T09:55:23;11.50;62.90
45044;DHT22;30784;48.490;9.688;2022-11-04T09:57:54;11.60;63.00
45044;DHT22;30784;48.490;9.688;2022-11-04T10:00:20;11.60;62.50
45044;DHT22;30784;48.490;9.688;2022-11-04T10:03:07;11.60;62.60
45044;DHT22;30784;48.490;9.688;2022-11-04T10:08:37;11.70;62.80
45044;DHT22;30784;48.490;9.688;2022-11-04T10:11:32;11.70;62.70
45044;DHT22;30784;48.490;9.688;2022-11-04T10:14:28;11.70;62.60
45044;DHT22;30784;48.490;9.688;2022-11-04T10:23:05;11.90;62.30
45044;DHT22;30784;48.490;9.688;2022-11-04T10:28:04;11.90;61.90
45044;DHT22;30784;48.490;9.688;2022-11-04T10:30:33;12.00;61.50
45044;DHT22;30784;48.490;9.688;2022-11-04T10:33:01;12.00;62.20
45044;DHT22;30784;48.490;9.688;2022-11-04T10:38:12;12.00;61.10
45044;DHT22;30784;48.490;9.688;2022-11-04T10:40:40;12.00;61.30
45044;DHT22;30784;48.490;9.688;2022-11-04T10:43:09;12.00;61.20
45044;DHT22;30784;48.490;9.688;2022-11-04T10:48:50;12.10;61.40
45044;DHT22;30784;48.490;9.688;2022-11-04T10:51:18;12.10;60.90
45044;DHT22;30784;48.490;9.688;2022-11-04T10:53:57;12.20;61.00
45044;DHT22;30784;48.490;9.688;2022-11-04T10:59:36;12.30;60.90
45044;DHT22;30784;48.490;9.688;2022-11-04T11:02:06;12.30;61.00
45044;DHT22;30784;48.490;9.688;2022-11-04T11:04:37;12.30;60.40
45044;DHT22;30784;48.490;9.688;2022-11-04T11:07:07;12.40;60.30
45044;DHT22;30784;48.490;9.688;2022-11-04T11:14:39;12.50;59.90
45044;DHT22;30784;48.490;9.688;2022-11-04T11:19:59;12.60;59.80
45044;DHT22;30784;48.490;9.688;2022-11-04T11:22:39;12.70;60.10
45044;DHT22;30784;48.490;9.688;2022-11-04T11:25:22;12.80;59.60
45044;DHT22;30784;48.490;9.688;2022-11-04T11:30:53;12.80;59.30
45044;DHT22;30784;48.490;9.688;2022-11-04T11:33:26;12.90;59.60
45044;DHT22;30784;48.490;9.688;2022-11-04T11:35:57;13.00;59.30
45044;DHT22;30784;48.490;9.688;2022-11-04T11:40:50;13.10;59.10
45044;DHT22;30784;48.490;9.688;2022-11-04T11:43:23;13.10;59.00
45044;DHT22;30784;48.490;9.688;2022-11-04T11:45:49;13.20;58.80
45044;DHT22;30784;48.490;9.688;2022-11-04T11:48:38;13.30;58.30
45044;DHT22;30784;48.490;9.688;2022-11-04T11:51:05;13.20;58.80
45044;DHT22;30784;48.490;9.688;2022-11-04T11:53:31;13.30;58.00
45044;DHT22;30784;48.490;9.688;2022-11-04T11:56:23;13.30;57.90
45044;DHT22;30784;48.490;9.688;2022-11-04T11:58:54;13.40;58.70
45044;DHT22;30784;48.490;9.688;2022-11-04T12:01:29;13.40;59.20
45044;DHT22;30784;48.490;9.688;2022-11-04T12:03:57;13.50;57.70
45044;DHT22;30784;48.490;9.688;2022-11-04T12:06:37;13.50;57.60
45044;DHT22;30784;48.490;9.688;2022-11-04T12:17:32;13.40;57.60
45044;DHT22;30784;48.490;9.688;2022-11-04T12:20:34;13.40;57.60
45044;DHT22;30784;48.490;9.688;2022-11-04T12:23:12;13.50;57.50
45044;DHT22;30784;48.490;9.688;2022-11-04T12:26:12;13.50;56.70
45044;DHT22;30784;48.490;9.688;2022-11-04T12:31:23;13.50;56.30
45044;DHT22;30784;48.490;9.688;2022-11-04T12:36:38;13.50;56.70
45044;DHT22;30784;48.490;9.688;2022-11-04T12:44:52;13.50;56.60
45044;DHT22;30784;48.490;9.688;2022-11-04T12:47:33;13.50;56.30
45044;DHT22;30784;48.490;9.688;2022-11-04T12:50:05;13.50;56.20
45044;DHT22;30784;48.490;9.688;2022-11-04T12:56:10;13.50;56.40
45044;DHT22;30784;48.490;9.688;2022-11-04T13:04:13;13.40;55.70
45044;DHT22;30784;48.490;9.688;2022-11-04T13:09:57;13.40;55.70
45044;DHT22;30784;48.490;9.688;2022-11-04T13:12:29;13.50;56.80
45044;DHT22;30784;48.490;9.688;2022-11-04T13:15:00;13.40;55.60
45044;DHT22;30784;48.490;9.688;2022-11-04T13:17:38;13.40;55.40
45044;DHT22;30784;48.490;9.688;2022-11-04T13:20:15;13.40;55.80
45044;DHT22;30784;48.490;9.688;2022-11-04T13:22:45;13.40;55.90
45044;DHT22;30784;48.490;9.688;2022-11-04T13:27:48;13.40;55.50
45044;DHT22;30784;48.490;9.688;2022-11-04T13:33:19;13.40;55.50
45044;DHT22;30784;48.490;9.688;2022-11-04T13:36:04;13.40;55.50
45044;DHT22;30784;48.490;9.688;2022-11-04T13:41:20;13.30;55.60
45044;DHT22;30784;48.490;9.688;2022-11-04T13:43:54;13.30;55.50
45044;DHT22;30784;48.490;9.688;2022-11-04T13:46:22;13.30;55.40
45044;DHT22;30784;48.490;9.688;2022-11-04T13:48:56;13.30;55.70
45044;DHT22;30784;48.490;9.688;2022-11-04T13:51:23;13.30;55.40
45044;DHT22;30784;48.490;9.688;2022-11-04T13:53:57;13.30;55.30
45044;DHT22;30784;48.490;9.688;2022-11-04T13:56:28;13.20;55.40
45044;DHT22;30784;48.490;9.688;2022-11-04T13:59:01;13.30;55.40
45044;DHT22;30784;48.490;9.688;2022-11-04T14:01:29;13.20;55.40
45044;DHT22;30784;48.490;9.688;2022-11-04T14:04:16;13.20;55.50
45044;DHT22;30784;48.490;9.688;2022-11-04T14:06:54;13.20;55.40
45044;DHT22;30784;48.490;9.688;2022-11-04T14:09:50;13.20;55.40
45044;DHT22;30784;48.490;9.688;2022-11-04T14:12:23;13.20;55.60
45044;DHT22;30784;48.490;9.688;2022-11-04T14:14:52;13.20;55.40
45044;DHT22;30784;48.490;9.688;2022-11-04T14:25:22;13.30;55.40
45044;DHT22;30784;48.490;9.688;2022-11-04T14:27:49;13.30;55.30
45044;DHT22;30784;48.490;9.688;2022-11-04T14:30:35;13.30;55.70
45044;DHT22;30784;48.490;9.688;2022-11-04T14:36:36;13.30;55.50
45044;DHT22;30784;48.490;9.688;2022-11-04T14:46:41;13.20;55.00
45044;DHT22;30784;48.490;9.688;2022-11-04T14:51:53;13.00;55.30
45044;DHT22;30784;48.490;9.688;2022-11-04T14:54:21;13.00;55.30
45044;DHT22;30784;48.490;9.688;2022-11-04T14:56:49;13.00;55.30
45044;DHT22;30784;48.490;9.688;2022-11-04T14:59:23;13.00;55.30
45044;DHT22;30784;48.490;9.688;2022-11-04T15:01:52;13.00;55.40
45044;DHT22;30784;48.490;9.688;2022-11-04T15:04:25;12.90;55.50
45044;DHT22;30784;48.490;9.688;2022-11-04T15:06:59;12.90;55.70
45044;DHT22;30784;48.490;9.688;2022-11-04T15:09:39;12.90;55.80
45044;DHT22;30784;48.490;9.688;2022-11-04T15:14:52;12.80;55.70
45044;DHT22;30784;48.490;9.688;2022-11-04T15:17:20;12.80;55.70
45044;DHT22;30784;48.490;9.688;2022-11-04T15:19:56;12.80;55.90
45044;DHT22;30784;48.490;9.688;2022-11-04T15:22:24;12.80;55.80
45044;DHT22;30784;48.490;9.688;2022-11-04T15:24:51;12.80;55.90
45044;DHT22;30784;48.490;9.688;2022-11-04T15:27:20;12.70;55.90
45044;DHT22;30784;48.490;9.688;2022-11-04T15:29:53;12.70;56.00
45044;DHT22;30784;48.490;9.688;2022-11-04T15:32:18;12.70;56.10
45044;DHT22;30784;48.490;9.688;2022-11-04T15:34:44;12.60;56.00
45044;DHT22;30784;48.490;9.688;2022-11-04T15:37:11;12.60;56.00
45044;DHT22;30784;48.490;9.688;2022-11-04T15:39:41;12.60;56.10
45044;DHT22;30784;48.490;9.688;2022-11-04T15:42:13;12.50;56.20
45044;DHT22;30784;48.490;9.688;2022-11-04T15:44:58;12.50;56.40
45044;DHT22;30784;48.490;9.688;2022-11-04T15:47:27;12.50;56.50
45044;DHT22;30784;48.490;9.688;2022-11-04T15:50:01;12.50;57.10
45044;DHT22;30784;48.490;9.688;2022-11-04T15:52:28;12.40;56.50
45044;DHT22;30784;48.490;9.688;2022-11-04T15:54:58;12.40;56.70
45044;DHT22;30784;48.490;9.688;2022-11-04T15:57:25;12.40;56.70
45044;DHT22;30784;48.490;9.688;2022-11-04T16:00:03;12.30;56.40
45044;DHT22;30784;48.490;9.688;2022-11-04T16:02:35;12.20;56.30
45044;DHT22;30784;48.490;9.688;2022-11-04T16:07:36;12.10;56.40
45044;DHT22;30784;48.490;9.688;2022-11-04T16:10:19;12.00;56.50
45044;DHT22;30784;48.490;9.688;2022-11-04T16:12:46;12.00;56.70
45044;DHT22;30784;48.490;9.688;2022-11-04T16:17:56;11.90;56.80
45044;DHT22;30784;48.490;9.688;2022-11-04T16:20:22;11.80;57.00
45044;DHT22;30784;48.490;9.688;2022-11-04T16:22:55;11.80;57.10
45044;DHT22;30784;48.490;9.688;2022-11-04T16:25:22;11.70;57.20
45044;DHT22;30784;48.490;9.688;2022-11-04T16:27:48;11.70;57.40
45044;DHT22;30784;48.490;9.688;2022-11-04T16:30:22;11.70;57.60
45044;DHT22;30784;48.490;9.688;2022-11-04T16:32:51;11.70;57.60
45044;DHT22;30784;48.490;9.688;2022-11-04T16:35:24;11.70;57.80
45044;DHT22;30784;48.490;9.688;2022-11-04T16:37:51;11.70;57.80
45044;DHT22;30784;48.490;9.688;2022-11-04T16:40:19;11.70;57.70
45044;DHT22;30784;48.490;9.688;2022-11-04T16:42:46;11.70;57.70
45044;DHT22;30784;48.490;9.688;2022-11-04T16:45:31;11.70;57.80
45044;DHT22;30784;48.490;9.688;2022-11-04T16:47:57;11.60;57.60
45044;DHT22;30784;48.490;9.688;2022-11-04T16:50:24;11.60;57.90
45044;DHT22;30784;48.490;9.688;2022-11-04T16:52:49;11.70;58.20
45044;DHT22;30784;48.490;9.688;2022-11-04T16:55:16;11.60;58.00
45044;DHT22;30784;48.490;9.688;2022-11-04T16:57:43;11.60;58.30
45044;DHT22;30784;48.490;9.688;2022-11-04T17:00:18;11.60;58.20
45044;DHT22;30784;48.490;9.688;2022-11-04T17:02:44;11.60;58.30
45044;DHT22;30784;48.490;9.688;2022-11-04T17:05:10;11.70;58.40
45044;DHT22;30784;48.490;9.688;2022-11-04T17:07:37;11.60;58.40
45044;DHT22;30784;48.490;9.688;2022-11-04T17:10:04;11.60;58.40
45044;DHT22;30784;48.490;9.688;2022-11-04T17:12:36;11.60;58.30
45044;DHT22;30784;48.490;9.688;2022-11-04T17:15:02;11.60;58.30
45044;DHT22;30784;48.490;9.688;2022-11-04T17:17:28;11.60;58.20
45044;DHT22;30784;48.490;9.688;2022-11-04T17:19:53;11.50;58.20
45044;DHT22;30784;48.490;9.688;2022-11-04T17:22:19;11.50;58.20
45044;DHT22;30784;48.490;9.688;2022-11-04T17:24:44;11.50;58.10
45044;DHT22;30784;48.490;9.688;2022-11-04T17:27:10;11.50;58.20
45044;DHT22;30784;48.490;9.688;2022-11-04T17:29:35;11.40;58.20
45044;DHT22;30784;48.490;9.688;2022-11-04T17:32:02;11.40;58.40
45044;DHT22;30784;48.490;9.688;2022-11-04T17:34:28;11.40;58.50
45044;DHT22;30784;48.490;9.688;2022-11-04T17:36:53;11.30;58.60
45044;DHT22;30784;48.490;9.688;2022-11-04T17:39:19;11.30;58.80
45044;DHT22;30784;48.490;9.688;2022-11-04T17:41:45;11.30;58.90
45044;DHT22;30784;48.490;9.688;2022-11-04T17:44:29;11.20;58.90
45044;DHT22;30784;48.490;9.688;2022-11-04T17:46:54;11.30;58.90
45044;DHT22;30784;48.490;9.688;2022-11-04T17:49:23;11.10;58.90
45044;DHT22;30784;48.490;9.688;2022-11-04T17:51:51;11.10;59.00
45044;DHT22;30784;48.490;9.688;2022-11-04T17:54:19;11.10;59.00
45044;DHT22;30784;48.490;9.688;2022-11-04T17:56:45;11.00;58.90
45044;DHT22;30784;48.490;9.688;2022-11-04T17:59:12;11.10;59.00
45044;DHT22;30784;48.490;9.688;2022-11-04T18:01:39;11.00;58.90
45044;DHT22;30784;48.490;9.688;2022-11-04T18:04:05;11.00;58.90